createdAt,value
2018-11-25T00:01:14.381Z,9.87
2018-11-25T00:03:45.976Z,15.20
2018-11-25T00:06:17.613Z,17.50
2018-11-25T00:08:49.193Z,15.13
2018-11-25T00:11:20.616Z,19.07
2018-11-25T00:13:52.304Z,12.60
2018-11-25T00:16:23.834Z,17.87
2018-11-25T00:18:55.411Z,14.80
2018-11-25T00:21:27.002Z,13.80
2018-11-25T00:23:58.530Z,16.67
2018-11-25T00:26:30.046Z,13.67
2018-11-25T00:29:01.628Z,13.17
2018-11-25T00:31:33.050Z,12.77
2018-11-25T00:34:04.727Z,14.53
2018-11-25T00:36:36.214Z,16.53
2018-11-25T00:39:10.193Z,14.97
2018-11-25T00:41:41.741Z,15.87
2018-11-25T00:44:13.281Z,12.87
2018-11-25T00:46:44.766Z,13.53
2018-11-25T00:49:16.187Z,15.37
2018-11-25T00:51:47.758Z,10.30
2018-11-25T00:54:19.188Z,11.77
2018-11-25T00:56:50.758Z,16.73
2018-11-25T00:59:22.386Z,14.37
2018-11-25T01:01:54.006Z,18.47
2018-11-25T01:04:25.673Z,13.87
2018-11-25T01:06:57.202Z,13.53
2018-11-25T01:09:28.889Z,15.37
2018-11-25T01:12:00.504Z,19.30
2018-11-25T01:14:32.046Z,19.17
2018-11-25T01:17:03.724Z,18.13
2018-11-25T01:19:35.424Z,17.83
2018-11-25T01:22:07.204Z,17.33
2018-11-25T01:24:38.678Z,13.70
2018-11-25T01:27:10.202Z,11.07
2018-11-25T01:29:42.001Z,11.33
2018-11-25T01:32:13.593Z,15.40
2018-11-25T01:34:45.105Z,15.73
2018-11-25T01:37:16.595Z,12.30
2018-11-25T01:39:48.110Z,14.27
2018-11-25T01:42:19.806Z,10.80
2018-11-25T01:44:51.326Z,12.77
2018-11-25T01:47:22.910Z,11.50
2018-11-25T01:49:54.533Z,11.73
2018-11-25T01:52:26.070Z,12.53
2018-11-25T01:54:57.527Z,12.30
2018-11-25T01:57:29.134Z,11.13
2018-11-25T02:00:00.633Z,10.43
2018-11-25T02:02:32.239Z,12.10
2018-11-25T02:05:03.773Z,10.97
2018-11-25T02:07:35.398Z,8.77
2018-11-25T02:10:12.625Z,10.77
2018-11-25T02:12:44.170Z,9.80
2018-11-25T02:15:16.870Z,15.40
2018-11-25T02:17:48.330Z,11.03
2018-11-25T02:20:22.734Z,13.33
2018-11-25T02:22:55.721Z,16.83
2018-11-25T02:25:27.442Z,15.90
2018-11-25T02:27:59.001Z,18.03
2018-11-25T02:30:30.604Z,16.43
2018-11-25T02:33:02.109Z,16.17
2018-11-25T02:35:33.538Z,14.20
2018-11-25T02:38:05.105Z,10.10
2018-11-25T02:40:36.634Z,9.83
2018-11-25T02:43:08.424Z,12.37
2018-11-25T02:45:40.019Z,9.43
2018-11-25T02:48:11.434Z,12.50
2018-11-25T02:50:42.886Z,11.40
2018-11-25T02:53:14.474Z,11.70
2018-11-25T02:55:45.988Z,10.07
2018-11-25T02:58:17.583Z,10.57
2018-11-25T03:00:49.299Z,14.90
2018-11-25T03:03:20.681Z,14.23
2018-11-25T03:05:52.293Z,15.30
2018-11-25T03:08:23.910Z,18.37
2018-11-25T03:10:55.604Z,13.77
2018-11-25T03:13:27.171Z,14.57
2018-11-25T03:15:58.632Z,14.30
2018-11-25T03:18:30.188Z,17.20
2018-11-25T03:21:01.625Z,18.63
2018-11-25T03:23:33.138Z,16.17
2018-11-25T03:26:04.790Z,16.73
2018-11-25T03:28:36.434Z,16.60
2018-11-25T03:31:08.437Z,15.17
2018-11-25T03:33:40.006Z,14.67
2018-11-25T03:36:11.441Z,14.13
2018-11-25T03:38:43.006Z,17.73
2018-11-25T03:41:14.548Z,18.33
2018-11-25T03:43:46.112Z,16.30
2018-11-25T03:46:17.717Z,17.13
2018-11-25T03:48:49.242Z,13.33
2018-11-25T03:51:20.826Z,15.27
2018-11-25T03:53:52.340Z,15.60
2018-11-25T03:56:23.869Z,16.27
2018-11-25T03:58:55.358Z,12.90
2018-11-25T04:01:27.042Z,12.13
2018-11-25T04:03:58.559Z,16.17
2018-11-25T04:06:29.983Z,13.93
2018-11-25T04:09:01.562Z,14.60
2018-11-25T04:11:32.991Z,14.87
2018-11-25T04:14:04.615Z,13.73
2018-11-25T04:16:36.264Z,14.67
2018-11-25T04:19:08.187Z,15.63
2018-11-25T04:21:39.833Z,15.97
2018-11-25T04:24:11.437Z,17.10
2018-11-25T04:26:43.166Z,16.03
2018-11-25T04:29:14.808Z,15.50
2018-11-25T04:31:46.277Z,16.53
2018-11-25T04:34:17.786Z,16.60
2018-11-25T04:36:49.367Z,15.47
2018-11-25T04:39:20.964Z,16.27
2018-11-25T04:41:52.471Z,14.63
2018-11-25T04:44:24.070Z,12.60
2018-11-25T04:46:55.702Z,16.67
2018-11-25T04:49:27.343Z,17.13
2018-11-25T04:51:58.997Z,18.03
2018-11-25T04:54:30.559Z,17.43
2018-11-25T04:57:02.018Z,17.63
2018-11-25T04:59:33.526Z,18.73
2018-11-25T05:02:05.023Z,18.67
2018-11-25T05:04:36.490Z,19.13
2018-11-25T05:07:08.530Z,18.23
2018-11-25T05:09:40.076Z,19.00
2018-11-25T05:12:11.542Z,16.13
2018-11-25T05:14:43.198Z,17.93
2018-11-25T05:17:14.736Z,16.57
2018-11-25T05:19:46.223Z,18.10
2018-11-25T05:22:17.844Z,18.37
2018-11-25T05:24:49.398Z,16.93
2018-11-25T05:27:21.001Z,16.73
2018-11-25T05:29:52.613Z,16.43
2018-11-25T05:32:24.035Z,15.50
2018-11-25T05:34:55.627Z,17.60
2018-11-25T05:37:27.219Z,14.67
2018-11-25T05:39:58.737Z,11.67
2018-11-25T05:42:30.320Z,16.13
2018-11-25T05:45:01.856Z,15.80
2018-11-25T05:47:33.586Z,17.03
2018-11-25T05:50:04.959Z,16.10
2018-11-25T05:52:36.654Z,14.57
2018-11-25T05:55:10.129Z,16.43
2018-11-25T05:57:41.848Z,15.47
2018-11-25T06:00:36.104Z,15.63
2018-11-25T06:03:07.706Z,15.33
2018-11-25T06:05:39.176Z,15.40
2018-11-25T06:08:10.805Z,16.87
2018-11-25T06:10:42.532Z,15.27
2018-11-25T06:13:13.958Z,15.57
2018-11-25T06:15:45.481Z,16.23
2018-11-25T06:18:17.221Z,16.03
2018-11-25T06:20:48.685Z,16.07
2018-11-25T06:23:20.275Z,16.17
2018-11-25T06:25:52.334Z,15.50
2018-11-25T06:28:23.969Z,15.77
2018-11-25T06:30:55.656Z,15.17
2018-11-25T06:33:27.284Z,15.57
2018-11-25T06:35:58.810Z,14.87
2018-11-25T06:38:30.363Z,15.17
2018-11-25T06:41:01.811Z,16.73
2018-11-25T06:43:33.385Z,16.30
2018-11-25T06:46:07.017Z,16.27
2018-11-25T06:48:38.539Z,16.33
2018-11-25T06:51:09.986Z,15.73
2018-11-25T06:53:41.530Z,16.83
2018-11-25T06:56:13.027Z,16.30
2018-11-25T06:58:44.741Z,16.53
2018-11-25T07:01:16.350Z,17.03
2018-11-25T07:03:47.870Z,16.07
2018-11-25T07:06:19.280Z,15.80
2018-11-25T07:08:50.855Z,17.20
2018-11-25T07:11:22.300Z,15.20
2018-11-25T07:13:53.869Z,15.40
2018-11-25T07:16:25.359Z,16.93
2018-11-25T07:18:56.966Z,15.73
2018-11-25T07:21:28.406Z,14.90
2018-11-25T07:23:59.977Z,15.37
2018-11-25T07:26:31.502Z,14.93
2018-11-25T07:29:03.101Z,15.07
2018-11-25T07:31:34.618Z,15.03
2018-11-25T07:34:06.419Z,15.83
2018-11-25T07:36:38.037Z,15.63
2018-11-25T07:39:09.836Z,14.10
2018-11-25T07:41:41.582Z,14.70
2018-11-25T07:44:13.141Z,13.67
2018-11-25T07:46:44.726Z,13.90
2018-11-25T07:49:16.254Z,15.17
2018-11-25T07:51:47.899Z,14.77
2018-11-25T07:54:19.358Z,14.63
2018-11-25T07:56:50.943Z,14.23
2018-11-25T07:59:22.566Z,14.43
2018-11-25T08:01:54.206Z,13.13
2018-11-25T08:04:25.669Z,14.60
2018-11-25T08:06:57.266Z,13.83
2018-11-25T08:09:28.790Z,13.80
2018-11-25T08:12:00.422Z,12.77
2018-11-25T08:14:31.894Z,13.80
2018-11-25T08:17:03.720Z,14.73
2018-11-25T08:19:35.375Z,15.53
2018-11-25T08:22:06.945Z,13.33
2018-11-25T08:24:38.361Z,13.70
2018-11-25T08:27:09.980Z,12.37
2018-11-25T08:29:41.766Z,11.50
2018-11-25T08:32:13.378Z,12.97
2018-11-25T08:34:44.799Z,13.60
2018-11-25T08:37:16.379Z,14.87
2018-11-25T08:39:47.800Z,13.47
2018-11-25T08:42:19.377Z,12.37
2018-11-25T08:44:50.803Z,13.33
2018-11-25T08:47:22.385Z,12.57
2018-11-25T08:49:53.879Z,12.93
2018-11-25T08:52:25.522Z,12.50
2018-11-25T08:54:57.131Z,11.97
2018-11-25T08:57:28.695Z,12.20
2018-11-25T09:00:00.188Z,12.70
2018-11-25T09:02:34.527Z,11.30
2018-11-25T09:05:09.718Z,11.40
2018-11-25T09:07:41.281Z,10.93
2018-11-25T09:10:22.683Z,10.70
2018-11-25T09:12:56.636Z,10.63
2018-11-25T09:15:29.730Z,9.80
2018-11-25T09:18:01.228Z,12.17
2018-11-25T09:20:32.760Z,11.17
2018-11-25T09:23:04.238Z,13.27
2018-11-25T09:25:35.923Z,11.83
2018-11-25T09:28:07.636Z,11.97
2018-11-25T09:30:39.282Z,13.07
2018-11-25T09:33:10.742Z,11.97
2018-11-25T09:35:42.175Z,11.73
2018-11-25T09:38:15.952Z,11.87
2018-11-25T09:40:49.650Z,9.67
2018-11-25T09:43:21.370Z,10.33
2018-11-25T09:45:53.495Z,8.80
2018-11-25T09:48:25.343Z,10.97
2018-11-25T09:50:56.951Z,11.40
2018-11-25T09:53:28.401Z,11.30
2018-11-25T09:56:00.069Z,10.57
2018-11-25T09:58:31.741Z,10.70
2018-11-25T10:01:03.442Z,10.27
2018-11-25T10:03:34.919Z,10.53
2018-11-25T10:06:06.998Z,11.23
2018-11-25T10:08:38.641Z,9.63
2018-11-25T10:11:10.350Z,10.47
2018-11-25T10:13:41.848Z,10.40
2018-11-25T10:16:13.560Z,8.17
2018-11-25T10:18:45.062Z,9.40
2018-11-25T10:21:16.657Z,10.10
2018-11-25T10:23:48.175Z,7.30
2018-11-25T10:26:19.590Z,10.17
2018-11-25T10:28:51.326Z,8.00
2018-11-25T10:31:22.825Z,8.50
2018-11-25T10:33:54.380Z,9.10
2018-11-25T10:36:26.066Z,8.87
2018-11-25T10:38:57.735Z,9.03
2018-11-25T10:41:29.253Z,8.07
2018-11-25T10:44:00.854Z,8.10
2018-11-25T10:46:32.373Z,8.37
2018-11-25T10:49:04.050Z,8.20
2018-11-25T10:51:35.561Z,9.93
2018-11-25T10:54:07.511Z,8.50
2018-11-25T10:56:39.043Z,7.70
2018-11-25T10:59:10.750Z,7.27
2018-11-25T11:01:54.070Z,7.43
2018-11-25T11:04:30.442Z,7.70
2018-11-25T11:07:06.931Z,8.33
2018-11-25T11:09:38.476Z,7.97
2018-11-25T11:12:10.091Z,8.83
2018-11-25T11:14:41.652Z,8.03
2018-11-25T11:17:13.262Z,7.50
2018-11-25T11:19:44.870Z,7.60
2018-11-25T11:22:16.425Z,7.60
2018-11-25T11:24:47.886Z,7.93
2018-11-25T11:27:19.310Z,8.27
2018-11-25T11:29:50.970Z,7.13
2018-11-25T11:32:22.637Z,7.47
2018-11-25T11:34:54.110Z,8.17
2018-11-25T11:37:25.794Z,7.30
2018-11-25T11:39:57.309Z,7.10
2018-11-25T11:42:29.015Z,6.47
2018-11-25T11:45:00.422Z,7.73
2018-11-25T11:47:31.850Z,7.67
2018-11-25T11:50:03.435Z,7.37
2018-11-25T11:52:34.882Z,7.47
2018-11-25T11:55:07.157Z,7.37
2018-11-25T11:57:38.739Z,7.23
2018-11-25T12:00:21.255Z,7.47
2018-11-25T12:02:52.863Z,6.87
2018-11-25T12:05:24.323Z,6.77
2018-11-25T12:07:55.960Z,6.70
2018-11-25T12:10:27.467Z,6.27
2018-11-25T12:12:59.073Z,7.27
2018-11-25T12:15:32.369Z,5.77
2018-11-25T12:18:03.920Z,5.40
2018-11-25T12:20:35.521Z,6.77
2018-11-25T12:23:08.095Z,6.53
2018-11-25T12:25:39.620Z,7.53
2018-11-25T12:28:11.261Z,7.77
2018-11-25T12:30:42.853Z,6.00
2018-11-25T12:33:14.425Z,7.07
2018-11-25T12:35:46.009Z,6.23
2018-11-25T12:38:17.581Z,5.80
2018-11-25T12:40:49.050Z,8.17
2018-11-25T12:43:20.470Z,6.90
2018-11-25T12:45:52.041Z,7.07
2018-11-25T12:48:23.638Z,6.70
2018-11-25T12:50:55.061Z,6.40
2018-11-25T12:53:26.470Z,6.03
2018-11-25T12:55:58.054Z,6.87
2018-11-25T12:58:29.543Z,6.23
2018-11-25T13:01:01.077Z,6.47
2018-11-25T13:03:32.542Z,7.07
2018-11-25T13:06:04.273Z,6.40
2018-11-25T13:08:35.697Z,6.67
2018-11-25T13:11:07.166Z,6.17
2018-11-25T13:13:38.591Z,7.13
2018-11-25T13:16:10.190Z,5.83
2018-11-25T13:18:41.595Z,7.30
2018-11-25T13:21:13.169Z,6.50
2018-11-25T13:23:44.511Z,6.70
2018-11-25T13:26:16.083Z,7.57
2018-11-25T13:28:47.614Z,6.83
2018-11-25T13:31:19.299Z,5.20
2018-11-25T13:33:57.350Z,5.97
2018-11-25T13:36:28.881Z,6.40
2018-11-25T13:39:00.505Z,7.70
2018-11-25T13:41:31.978Z,6.97
2018-11-25T13:44:03.563Z,8.00
2018-11-25T13:46:35.082Z,5.37
2018-11-25T13:49:06.671Z,4.20
2018-11-25T13:51:38.084Z,4.73
2018-11-25T13:54:09.534Z,4.30
2018-11-25T13:56:41.021Z,6.40
2018-11-25T13:59:12.542Z,9.47
2018-11-25T14:01:43.960Z,7.17
2018-11-25T14:04:15.531Z,8.43
2018-11-25T14:06:46.978Z,7.70
2018-11-25T14:09:18.659Z,7.50
2018-11-25T14:11:50.140Z,8.67
2018-11-25T14:14:21.646Z,7.70
2018-11-25T14:16:53.082Z,8.67
2018-11-25T14:19:24.650Z,6.70
2018-11-25T14:21:56.263Z,5.77
2018-11-25T14:24:27.871Z,7.70
2018-11-25T14:27:02.430Z,7.90
2018-11-25T14:29:34.046Z,7.90
2018-11-25T14:32:05.541Z,8.50
2018-11-25T14:34:37.086Z,7.93
2018-11-25T14:37:08.806Z,8.60
2018-11-25T14:39:40.269Z,8.03
2018-11-25T14:42:11.756Z,7.17
2018-11-25T14:44:43.271Z,6.57
2018-11-25T14:47:14.819Z,6.93
2018-11-25T14:49:46.286Z,7.50
2018-11-25T14:52:17.974Z,7.80
2018-11-25T14:54:51.390Z,8.50
2018-11-25T14:57:21.224Z,8.47
2018-11-25T14:59:55.300Z,8.10
2018-11-25T15:02:26.889Z,7.70
2018-11-25T15:04:58.549Z,8.70
2018-11-25T15:07:30.100Z,8.13
2018-11-25T15:10:01.669Z,8.17
2018-11-25T15:12:33.266Z,8.23
2018-11-25T15:15:05.187Z,7.63
2018-11-25T15:17:36.739Z,8.70
2018-11-25T15:20:11.188Z,9.00
2018-11-25T15:22:44.189Z,8.47
2018-11-25T15:25:22.279Z,7.70
2018-11-25T15:27:53.989Z,8.17
2018-11-25T15:30:25.576Z,7.73
2018-11-25T15:32:57.134Z,8.43
2018-11-25T15:35:28.600Z,5.93
2018-11-25T15:38:00.174Z,4.80
2018-11-25T15:40:33.656Z,3.90
2018-11-25T15:43:05.394Z,5.00
2018-11-25T15:45:36.756Z,7.43
2018-11-25T15:48:21.173Z,5.90
2018-11-25T15:50:52.817Z,8.03
2018-11-25T15:53:24.521Z,5.70
2018-11-25T15:55:59.468Z,6.67
2018-11-25T15:58:31.403Z,5.77
2018-11-25T16:01:02.871Z,8.77
2018-11-25T16:03:34.458Z,6.40
2018-11-25T16:06:17.626Z,8.87
2018-11-25T16:08:49.095Z,9.50
2018-11-25T16:11:20.861Z,8.77
2018-11-25T16:13:52.309Z,8.73
2018-11-25T16:16:23.769Z,7.40
2018-11-25T16:18:55.309Z,6.40
2018-11-25T16:21:27.482Z,8.63
2018-11-25T16:23:58.911Z,7.30
2018-11-25T16:26:33.650Z,8.83
2018-11-25T16:29:10.470Z,8.93
2018-11-25T16:31:42.034Z,8.27
2018-11-25T16:34:13.588Z,8.30
2018-11-25T16:36:45.191Z,9.40
2018-11-25T16:39:16.925Z,8.87
2018-11-25T16:41:48.577Z,8.67
2018-11-25T16:44:20.158Z,8.40
2018-11-25T16:46:51.766Z,7.00
2018-11-25T16:49:23.273Z,7.67
2018-11-25T16:51:54.710Z,6.90
2018-11-25T16:54:26.183Z,6.13
2018-11-25T16:56:57.539Z,5.80
2018-11-25T16:59:29.080Z,6.53
2018-11-25T17:02:00.544Z,6.80
2018-11-25T17:04:33.000Z,5.43
2018-11-25T17:07:04.498Z,5.53
2018-11-25T17:09:36.015Z,6.33
2018-11-25T17:12:07.665Z,5.77
2018-11-25T17:14:39.105Z,5.63
2018-11-25T17:17:10.537Z,5.40
2018-11-25T17:19:42.110Z,5.63
2018-11-25T17:22:16.631Z,5.70
2018-11-25T17:24:45.225Z,5.87
2018-11-25T17:27:16.643Z,6.10
2018-11-25T17:29:48.234Z,6.90
2018-11-25T17:32:19.722Z,5.47
2018-11-25T17:34:51.343Z,6.00
2018-11-25T17:37:22.802Z,5.67
2018-11-25T17:39:54.342Z,6.13
2018-11-25T17:42:25.697Z,6.63
2018-11-25T17:44:57.254Z,6.27
2018-11-25T17:47:28.671Z,5.87
2018-11-25T17:50:00.150Z,6.43
2018-11-25T17:52:31.575Z,5.90
2018-11-25T17:55:03.160Z,6.20
2018-11-25T17:57:34.592Z,6.87
2018-11-25T18:00:11.236Z,6.57
2018-11-25T18:02:42.829Z,6.93
2018-11-25T18:05:14.475Z,6.73
2018-11-25T18:07:45.947Z,6.27
2018-11-25T18:10:17.709Z,6.30
2018-11-25T18:12:49.073Z,6.27
2018-11-25T18:15:22.030Z,6.43
2018-11-25T18:18:07.374Z,6.90
2018-11-25T18:20:42.609Z,7.33
2018-11-25T18:23:14.109Z,5.90
2018-11-25T18:25:45.675Z,6.10
2018-11-25T18:28:17.227Z,6.80
2018-11-25T18:30:48.877Z,6.60
2018-11-25T18:33:20.350Z,6.83
2018-11-25T18:35:51.921Z,6.47
2018-11-25T18:38:23.533Z,6.60
2018-11-25T18:40:55.162Z,6.90
2018-11-25T18:43:26.755Z,6.80
2018-11-25T18:45:59.341Z,6.20
2018-11-25T18:48:30.247Z,6.80
2018-11-25T18:51:01.862Z,7.17
2018-11-25T18:53:33.362Z,7.60
2018-11-25T18:56:04.936Z,6.90
2018-11-25T18:58:36.293Z,6.33
2018-11-25T19:01:26.502Z,6.33
2018-11-25T19:03:58.001Z,6.10
2018-11-25T19:06:29.457Z,4.50
2018-11-25T19:09:00.921Z,5.20
2018-11-25T19:11:32.420Z,6.13
2018-11-25T19:14:03.958Z,7.50
2018-11-25T19:16:35.583Z,6.87
2018-11-25T19:19:07.444Z,7.03
2018-11-25T19:21:38.988Z,6.13
2018-11-25T19:24:10.422Z,6.00
2018-11-25T19:26:41.997Z,6.00
2018-11-25T19:29:13.538Z,6.07
2018-11-25T19:31:45.119Z,6.33
2018-11-25T19:34:16.597Z,6.13
2018-11-25T19:36:48.214Z,6.10
2018-11-25T19:39:19.745Z,6.27
2018-11-25T19:41:51.762Z,5.03
2018-11-25T19:44:23.438Z,5.17
2018-11-25T19:46:54.954Z,5.40
2018-11-25T19:49:26.543Z,4.70
2018-11-25T19:51:58.062Z,5.70
2018-11-25T19:54:29.601Z,5.70
2018-11-25T19:57:01.063Z,6.37
2018-11-25T19:59:32.654Z,5.63
2018-11-25T20:02:04.190Z,6.50
2018-11-25T20:04:35.877Z,5.53
2018-11-25T20:07:07.401Z,6.57
2018-11-25T20:09:39.083Z,6.03
2018-11-25T20:12:10.702Z,6.37
2018-11-25T20:14:42.265Z,6.53
2018-11-25T20:17:18.526Z,6.90
2018-11-25T20:19:50.158Z,6.63
2018-11-25T20:22:25.217Z,6.83
2018-11-25T20:24:56.748Z,7.27
2018-11-25T20:27:33.123Z,7.43
2018-11-25T20:30:05.450Z,7.60
2018-11-25T20:32:41.503Z,7.57
2018-11-25T20:35:13.125Z,6.63
2018-11-25T20:37:49.538Z,7.00
2018-11-25T20:40:21.198Z,6.50
2018-11-25T20:42:52.828Z,6.40
2018-11-25T20:45:29.467Z,6.00
2018-11-25T20:48:01.746Z,6.70
2018-11-25T20:50:33.098Z,6.80
2018-11-25T20:53:09.542Z,6.57
2018-11-25T20:55:41.011Z,6.70
2018-11-25T20:58:12.714Z,5.87
2018-11-25T21:00:44.808Z,6.63
2018-11-25T21:03:16.425Z,6.37
2018-11-25T21:05:47.923Z,7.73
2018-11-25T21:08:19.507Z,6.40
2018-11-25T21:10:50.906Z,7.23
2018-11-25T21:13:22.516Z,7.03
2018-11-25T21:15:54.026Z,7.43
2018-11-25T21:18:25.601Z,7.23
2018-11-25T21:20:57.046Z,6.70
2018-11-25T21:23:28.606Z,7.13
2018-11-25T21:26:00.044Z,6.77
2018-11-25T21:28:31.613Z,7.27
2018-11-25T21:31:03.143Z,5.20
2018-11-25T21:33:34.618Z,5.93
2018-11-25T21:36:06.382Z,6.40
2018-11-25T21:38:37.944Z,5.97
2018-11-25T21:41:09.534Z,5.77
2018-11-25T21:43:41.037Z,7.37
2018-11-25T21:46:12.641Z,6.03
2018-11-25T21:48:44.118Z,7.57
2018-11-25T21:51:15.699Z,7.43
2018-11-25T21:53:47.113Z,6.80
2018-11-25T21:56:18.750Z,7.40
2018-11-25T21:58:50.290Z,7.00
2018-11-25T22:01:21.904Z,7.63
2018-11-25T22:03:53.462Z,8.23
2018-11-25T22:06:25.027Z,6.80
2018-11-25T22:08:56.764Z,7.30
2018-11-25T22:11:28.334Z,8.00
2018-11-25T22:13:59.867Z,7.33
2018-11-25T22:16:31.443Z,8.27
2018-11-25T22:19:02.869Z,7.60
2018-11-25T22:21:34.446Z,7.43
2018-11-25T22:24:05.881Z,7.47
2018-11-25T22:26:37.445Z,7.00
2018-11-25T22:29:09.067Z,7.83
2018-11-25T22:31:40.669Z,7.03
2018-11-25T22:34:12.200Z,6.90
2018-11-25T22:36:43.666Z,7.10
2018-11-25T22:39:15.083Z,7.50
2018-11-25T22:41:46.680Z,8.10
2018-11-25T22:44:18.274Z,6.83
2018-11-25T22:46:49.790Z,7.57
2018-11-25T22:49:21.382Z,6.10
2018-11-25T22:51:52.893Z,7.07
2018-11-25T22:54:24.414Z,8.00
2018-11-25T22:56:55.901Z,7.10
2018-11-25T22:59:27.497Z,7.67
2018-11-25T23:01:59.007Z,7.03
2018-11-25T23:04:46.803Z,6.80
2018-11-25T23:07:18.486Z,7.13
2018-11-25T23:09:49.988Z,6.93
2018-11-25T23:12:21.618Z,7.90
2018-11-25T23:14:53.135Z,5.13
2018-11-25T23:17:24.711Z,5.97
2018-11-25T23:19:56.128Z,7.37
2018-11-25T23:22:27.710Z,7.70
2018-11-25T23:24:59.311Z,7.87
2018-11-25T23:27:30.835Z,6.27
2018-11-25T23:30:02.425Z,6.93
2018-11-25T23:32:33.934Z,6.03
2018-11-25T23:35:05.910Z,5.43
2018-11-25T23:37:37.361Z,5.77
2018-11-25T23:40:10.366Z,5.83
2018-11-25T23:42:41.914Z,5.57
2018-11-25T23:45:16.743Z,4.80
2018-11-25T23:47:48.571Z,4.80
2018-11-25T23:50:20.166Z,4.70
2018-11-25T23:52:51.992Z,5.50
2018-11-25T23:55:23.460Z,4.70
2018-11-25T23:57:55.046Z,5.60
